Disclaimer

Please do not use the information listed here in-flight or in-navigation, as they are not provided to us by the airports but are provided by volunteers, so they might be outdated.

Search


Regions


Airport information page

Radio informations:
Tower (TWR) - 122.1 MHz
RADAR - 123.3 MHz
LANGEN CON - 125.6 MHz

Airport informations:
Latitude: 50° 10' 25.80" N
Longitude: 007° 03' 48.00" E
Elevation: 1568 feet - 478 meters
Operating hours: Remarks
Operating agency: Military
Timezone: UTC+1(+2DT) - Last Sunday in March to last Sunday in October
Fuel: JP-8, SemiKeroscene MIL Spec T-83133, without icing inhibitor

Runway information:
03/21 - 8225 x 148 feet< - >2507 x 45 meters

Recent METARs:
ETSB 160920Z AUTO 24007KT 0200 // ////// M03/M04 Q1010 ///
ETSB 161020Z AUTO 24009KT 0200 // ////// M03/M03 Q1010 ///
ETSB 161020Z AUTO 24009KT 0200 // ////// M03/M03 Q1010 ///

Airport on the map: